createdAt,value
2018-04-20T00:00:27.778Z,1015
2018-04-20T00:01:08.191Z,1015.01
2018-04-20T00:01:48.614Z,1015.01
2018-04-20T00:02:29.046Z,1014.99
2018-04-20T00:03:09.433Z,1015
2018-04-20T00:03:49.829Z,1015
2018-04-20T00:04:30.225Z,1015
2018-04-20T00:05:10.587Z,1014.98
2018-04-20T00:05:50.980Z,1014.99
2018-04-20T00:06:31.359Z,1014.95
2018-04-20T00:07:11.755Z,1014.97
2018-04-20T00:07:52.184Z,1015.01
2018-04-20T00:08:32.519Z,1014.99
2018-04-20T00:09:12.967Z,1014.95
2018-04-20T00:09:53.332Z,1015
2018-04-20T00:10:33.757Z,1014.96
2018-04-20T00:11:14.094Z,1014.99
2018-04-20T00:11:54.473Z,1014.96
2018-04-20T00:12:34.880Z,1014.94
2018-04-20T00:13:15.301Z,1014.92
2018-04-20T00:13:55.664Z,1014.91
2018-04-20T00:14:36.058Z,1014.91
2018-04-20T00:15:16.501Z,1014.9
2018-04-20T00:15:56.886Z,1014.89
2018-04-20T00:16:37.366Z,1014.92
2018-04-20T00:17:17.719Z,1014.88
2018-04-20T00:17:58.284Z,1014.88
2018-04-20T00:18:38.565Z,1014.89
2018-04-20T00:19:18.946Z,1014.89
2018-04-20T00:19:59.339Z,1014.85
2018-04-20T00:20:39.719Z,1014.84
2018-04-20T00:21:20.171Z,1014.85
2018-04-20T00:22:00.524Z,1014.86
2018-04-20T00:22:40.910Z,1014.87
2018-04-20T00:23:21.342Z,1014.88
2018-04-20T00:24:01.697Z,1014.87
2018-04-20T00:24:42.109Z,1014.82
2018-04-20T00:25:22.487Z,1014.9
2018-04-20T00:26:02.888Z,1014.8
2018-04-20T00:26:43.244Z,1014.82
2018-04-20T00:27:23.694Z,1014.81
2018-04-20T00:28:04.064Z,1014.79
2018-04-20T00:28:44.451Z,1014.77
2018-04-20T00:29:24.854Z,1014.8
2018-04-20T00:30:05.255Z,1014.82
2018-04-20T00:30:45.672Z,1014.75
2018-04-20T00:31:26.063Z,1014.84
2018-04-20T00:32:06.472Z,1014.8
2018-04-20T00:32:46.919Z,1014.8
2018-04-20T00:33:27.294Z,1014.78
2018-04-20T00:34:07.677Z,1014.84
2018-04-20T00:34:48.152Z,1014.78
2018-04-20T00:35:28.471Z,1014.8
2018-04-20T00:36:08.907Z,1014.79
2018-04-20T00:36:49.284Z,1014.77
2018-04-20T00:37:29.694Z,1014.8
2018-04-20T00:38:10.123Z,1014.8
2018-04-20T00:38:50.484Z,1014.79
2018-04-20T00:39:30.868Z,1014.79
2018-04-20T00:40:11.303Z,1014.8
2018-04-20T00:40:51.633Z,1014.77
2018-04-20T00:41:32.028Z,1014.76
2018-04-20T00:42:12.482Z,1014.78
2018-04-20T00:42:52.826Z,1014.76
2018-04-20T00:43:33.217Z,1014.75
2018-04-20T00:44:13.593Z,1014.73
2018-04-20T00:44:54.027Z,1014.76
2018-04-20T00:45:34.425Z,1014.72
2018-04-20T00:46:14.890Z,1014.72
2018-04-20T00:46:55.233Z,1014.73
2018-04-20T00:47:35.640Z,1014.74
2018-04-20T00:48:16.081Z,1014.76
2018-04-20T00:48:56.401Z,1014.73
2018-04-20T00:49:36.833Z,1014.76
2018-04-20T00:50:17.182Z,1014.71
2018-04-20T00:50:57.584Z,1014.71
2018-04-20T00:51:37.984Z,1014.71
2018-04-20T00:52:18.402Z,1014.71
2018-04-20T00:52:58.817Z,1014.73
2018-04-20T00:53:39.185Z,1014.71
2018-04-20T00:54:19.615Z,1014.68
2018-04-20T00:54:59.937Z,1014.7
2018-04-20T00:55:40.391Z,1014.71
2018-04-20T00:56:20.750Z,1014.68
2018-04-20T00:57:01.187Z,1014.68
2018-04-20T00:57:41.545Z,1014.7
2018-04-20T00:58:21.982Z,1014.66
2018-04-20T00:59:02.359Z,1014.68
2018-04-20T00:59:42.810Z,1014.65
2018-04-20T01:00:23.175Z,1014.68
2018-04-20T01:01:03.622Z,1014.66
2018-04-20T01:01:43.948Z,1014.67
2018-04-20T01:02:24.362Z,1014.68
2018-04-20T01:03:04.723Z,1014.66
2018-04-20T01:03:45.146Z,1014.64
2018-04-20T01:04:25.651Z,1014.68
2018-04-20T01:05:05.927Z,1014.64
2018-04-20T01:05:46.340Z,1014.66
2018-04-20T01:06:26.765Z,1014.66
2018-04-20T01:07:07.147Z,1014.65
2018-04-20T01:07:47.520Z,1014.65
2018-04-20T01:08:27.889Z,1014.64
2018-04-20T01:09:08.285Z,1014.67
2018-04-20T01:09:48.697Z,1014.62
2018-04-20T01:10:29.099Z,1014.64
2018-04-20T01:11:09.562Z,1014.63
2018-04-20T01:11:49.961Z,1014.63
2018-04-20T01:12:30.297Z,1014.62
2018-04-20T01:13:10.693Z,1014.6
2018-04-20T01:13:51.050Z,1014.59
2018-04-20T01:14:31.481Z,1014.59
2018-04-20T01:15:11.900Z,1014.57
2018-04-20T01:15:52.291Z,1014.58
2018-04-20T01:16:32.657Z,1014.6
2018-04-20T01:17:13.046Z,1014.61
2018-04-20T01:17:53.488Z,1014.57
2018-04-20T01:18:33.894Z,1014.55
2018-04-20T01:19:14.252Z,1014.54
2018-04-20T01:19:54.656Z,1014.53
2018-04-20T01:20:35.098Z,1014.53
2018-04-20T01:21:15.508Z,1014.55
2018-04-20T01:21:55.917Z,1014.55
2018-04-20T01:22:36.307Z,1014.54
2018-04-20T01:23:16.671Z,1014.53
2018-04-20T01:23:57.081Z,1014.52
2018-04-20T01:24:37.553Z,1014.55
2018-04-20T01:25:17.925Z,1014.55
2018-04-20T01:25:58.257Z,1014.56
2018-04-20T01:26:38.634Z,1014.56
2018-04-20T01:27:19.104Z,1014.52
2018-04-20T01:27:59.505Z,1014.55
2018-04-20T01:28:39.899Z,1014.53
2018-04-20T01:29:20.301Z,1014.53
2018-04-20T01:30:00.665Z,1014.5
2018-04-20T01:30:41.040Z,1014.51
2018-04-20T01:31:21.384Z,1014.52
2018-04-20T01:32:01.791Z,1014.53
2018-04-20T01:32:42.235Z,1014.51
2018-04-20T01:33:22.554Z,1014.53
2018-04-20T01:34:03.008Z,1014.5
2018-04-20T01:34:43.345Z,1014.52
2018-04-20T01:35:23.702Z,1014.54
2018-04-20T01:36:04.127Z,1014.53
2018-04-20T01:36:44.454Z,1014.51
2018-04-20T01:37:24.810Z,1014.53
2018-04-20T01:38:05.231Z,1014.55
2018-04-20T01:38:45.702Z,1014.5
2018-04-20T01:39:26.065Z,1014.54
2018-04-20T01:40:06.519Z,1014.56
2018-04-20T01:40:46.859Z,1014.56
2018-04-20T01:41:27.217Z,1014.56
2018-04-20T01:42:07.620Z,1014.52
2018-04-20T01:42:48.041Z,1014.55
2018-04-20T01:43:28.443Z,1014.52
2018-04-20T01:44:08.869Z,1014.53
2018-04-20T01:44:49.209Z,1014.56
2018-04-20T01:45:29.563Z,1014.56
2018-04-20T01:46:09.971Z,1014.57
2018-04-20T01:46:50.440Z,1014.55
2018-04-20T01:47:30.766Z,1014.55
2018-04-20T01:48:11.202Z,1014.51
2018-04-20T01:48:51.713Z,1014.54
2018-04-20T01:49:32.050Z,1014.5
2018-04-20T01:50:12.474Z,1014.5
2018-04-20T01:50:53.036Z,1014.51
2018-04-20T01:51:33.187Z,1014.54
2018-04-20T01:52:13.598Z,1014.49
2018-04-20T01:52:54.051Z,1014.48
2018-04-20T01:53:34.453Z,1014.48
2018-04-20T01:54:14.892Z,1014.51
2018-04-20T01:54:55.286Z,1014.47
2018-04-20T01:55:35.751Z,1014.46
2018-04-20T01:56:16.176Z,1014.48
2018-04-20T01:56:56.472Z,1014.46
2018-04-20T01:57:36.964Z,1014.47
2018-04-20T01:58:17.409Z,1014.44
2018-04-20T01:58:57.834Z,1014.45
2018-04-20T01:59:38.177Z,1014.46
2018-04-20T02:00:18.628Z,1014.43
2018-04-20T02:00:58.936Z,1014.44
2018-04-20T02:01:39.397Z,1014.41
2018-04-20T02:02:19.836Z,1014.45
2018-04-20T02:03:00.192Z,1014.39
2018-04-20T02:03:40.581Z,1014.41
2018-04-20T02:04:20.986Z,1014.42
2018-04-20T02:05:01.352Z,1014.44
2018-04-20T02:05:41.711Z,1014.43
2018-04-20T02:06:22.147Z,1014.43
2018-04-20T02:07:02.529Z,1014.44
2018-04-20T02:07:42.892Z,1014.46
2018-04-20T02:08:23.306Z,1014.42
2018-04-20T02:09:03.721Z,1014.46
2018-04-20T02:09:44.121Z,1014.43
2018-04-20T02:10:24.476Z,1014.44
2018-04-20T02:11:04.915Z,1014.48
2018-04-20T02:11:45.243Z,1014.45
2018-04-20T02:12:25.672Z,1014.44
2018-04-20T02:13:06.063Z,1014.48
2018-04-20T02:13:46.404Z,1014.45
2018-04-20T02:14:26.816Z,1014.44
2018-04-20T02:15:07.247Z,1014.43
2018-04-20T02:15:47.655Z,1014.43
2018-04-20T02:16:28.004Z,1014.4
2018-04-20T02:17:08.383Z,1014.39
2018-04-20T02:17:48.861Z,1014.4
2018-04-20T02:18:29.275Z,1014.39
2018-04-20T02:19:09.602Z,1014.41
2018-04-20T02:19:50.072Z,1014.41
2018-04-20T02:20:30.427Z,1014.4
2018-04-20T02:21:10.853Z,1014.37
2018-04-20T02:21:51.188Z,1014.38
2018-04-20T02:22:31.598Z,1014.43
2018-04-20T02:23:12.065Z,1014.42
2018-04-20T02:23:52.453Z,1014.44
2018-04-20T02:24:32.779Z,1014.44
2018-04-20T02:25:13.203Z,1014.46
2018-04-20T02:25:53.613Z,1014.41
2018-04-20T02:26:33.973Z,1014.44
2018-04-20T02:27:14.363Z,1014.43
2018-04-20T02:27:54.769Z,1014.43
2018-04-20T02:28:35.191Z,1014.43
2018-04-20T02:29:15.569Z,1014.4
2018-04-20T02:29:56.040Z,1014.4
2018-04-20T02:30:36.384Z,1014.42
2018-04-20T02:31:16.832Z,1014.4
2018-04-20T02:31:57.227Z,1014.37
2018-04-20T02:32:37.575Z,1014.43
2018-04-20T02:33:18.022Z,1014.4
2018-04-20T02:33:58.368Z,1014.41
2018-04-20T02:34:38.775Z,1014.39
2018-04-20T02:35:19.163Z,1014.43
2018-04-20T02:35:59.559Z,1014.45
2018-04-20T02:36:39.998Z,1014.43
2018-04-20T02:37:20.435Z,1014.39
2018-04-20T02:38:00.811Z,1014.43
2018-04-20T02:38:41.159Z,1014.42
2018-04-20T02:39:21.583Z,1014.44
2018-04-20T02:40:01.941Z,1014.45
2018-04-20T02:40:42.376Z,1014.4
2018-04-20T02:41:22.790Z,1014.42
2018-04-20T02:42:03.199Z,1014.4
2018-04-20T02:42:43.584Z,1014.4
2018-04-20T02:43:23.919Z,1014.41
2018-04-20T02:44:04.317Z,1014.39
2018-04-20T02:44:44.701Z,1014.39
2018-04-20T02:45:25.066Z,1014.38
2018-04-20T02:46:05.467Z,1014.38
2018-04-20T02:46:45.869Z,1014.39
2018-04-20T02:47:26.294Z,1014.38
2018-04-20T02:48:06.626Z,1014.41
2018-04-20T02:48:47.041Z,1014.4
2018-04-20T02:49:27.400Z,1014.38
2018-04-20T02:50:07.788Z,1014.38
2018-04-20T02:50:48.252Z,1014.37
2018-04-20T02:51:28.639Z,1014.39
2018-04-20T02:52:09.197Z,1014.38
2018-04-20T02:52:49.439Z,1014.39
2018-04-20T02:53:29.824Z,1014.38
2018-04-20T02:54:10.219Z,1014.4
2018-04-20T02:54:50.578Z,1014.38
2018-04-20T02:55:30.986Z,1014.38
2018-04-20T02:56:11.403Z,1014.42
2018-04-20T02:56:51.896Z,1014.4
2018-04-20T02:57:32.160Z,1014.43
2018-04-20T02:58:12.577Z,1014.41
2018-04-20T02:58:52.970Z,1014.44
2018-04-20T02:59:33.480Z,1014.42
2018-04-20T03:00:13.895Z,1014.39
2018-04-20T03:00:54.315Z,1014.38
2018-04-20T03:01:34.652Z,1014.41
2018-04-20T03:02:15.076Z,1014.36
2018-04-20T03:02:55.551Z,1014.39
2018-04-20T03:03:36.182Z,1014.35
2018-04-20T03:04:16.539Z,1014.39
2018-04-20T03:04:56.963Z,1014.38
2018-04-20T03:05:37.374Z,1014.34
2018-04-20T03:06:18.123Z,1014.36
2018-04-20T03:06:58.437Z,1014.37
2018-04-20T03:07:38.841Z,1014.35
2018-04-20T03:08:19.451Z,1014.35
2018-04-20T03:08:59.789Z,1014.4
2018-04-20T03:09:40.174Z,1014.39
2018-04-20T03:10:20.706Z,1014.35
2018-04-20T03:11:01.236Z,1014.35
2018-04-20T03:11:41.567Z,1014.34
2018-04-20T03:12:21.982Z,1014.35
2018-04-20T03:13:02.561Z,1014.35
2018-04-20T03:13:42.892Z,1014.33
2018-04-20T03:14:23.236Z,1014.33
2018-04-20T03:15:03.606Z,1014.36
2018-04-20T03:15:44.025Z,1014.3
2018-04-20T03:16:24.453Z,1014.33
2018-04-20T03:17:04.901Z,1014.3
2018-04-20T03:17:45.234Z,1014.3
2018-04-20T03:18:25.944Z,1014.31
2018-04-20T03:19:06.273Z,1014.32
2018-04-20T03:19:46.669Z,1014.32
2018-04-20T03:20:27.071Z,1014.3
2018-04-20T03:21:07.571Z,1014.31
2018-04-20T03:21:48.105Z,1014.33
2018-04-20T03:22:31.058Z,1014.38
2018-04-20T03:23:11.653Z,1014.33
2018-04-20T03:23:52.016Z,1014.36
2018-04-20T03:24:32.549Z,1014.34
2018-04-20T03:25:12.924Z,1014.29
2018-04-20T03:25:53.382Z,1014.29
2018-04-20T03:26:33.777Z,1014.3
2018-04-20T03:27:14.341Z,1014.29
2018-04-20T03:27:54.867Z,1014.28
2018-04-20T03:28:35.548Z,1014.31
2018-04-20T03:29:15.934Z,1014.3
2018-04-20T03:29:56.384Z,1014.26
2018-04-20T03:30:36.739Z,1014.26
2018-04-20T03:31:17.152Z,1014.25
2018-04-20T03:31:57.556Z,1014.28
2018-04-20T03:34:00.778Z,1014.15
2018-04-20T03:34:37.907Z,1014.17
2018-04-20T03:35:18.329Z,1014.18
2018-04-20T03:35:58.678Z,1014.16
2018-04-20T03:36:39.074Z,1014.17
2018-04-20T03:37:19.470Z,1014.17
2018-04-20T03:38:00.073Z,1014.17
2018-04-20T03:38:40.493Z,1014.15
2018-04-20T03:39:20.906Z,1014.15
2018-04-20T03:40:01.297Z,1014.19
2018-04-20T03:40:41.697Z,1014.18
2018-04-20T03:41:22.089Z,1014.21
2018-04-20T03:42:02.540Z,1014.19
2018-04-20T03:42:42.904Z,1014.2
2018-04-20T03:43:23.308Z,1014.17
2018-04-20T03:44:03.677Z,1014.21
2018-04-20T03:44:44.106Z,1014.19
2018-04-20T03:45:24.540Z,1014.2
2018-04-20T03:46:04.909Z,1014.18
2018-04-20T03:46:45.298Z,1014.12
2018-04-20T03:47:25.686Z,1014.1
2018-04-20T03:48:06.123Z,1014.08
2018-04-20T03:48:46.597Z,1014.07
2018-04-20T03:49:26.937Z,1014.09
2018-04-20T03:50:07.293Z,1014.05
2018-04-20T03:50:47.701Z,1014.07
2018-04-20T03:51:28.078Z,1014.1
2018-04-20T03:52:08.438Z,1014.07
2018-04-20T03:52:48.907Z,1014.07
2018-04-20T03:53:29.271Z,1014.07
2018-04-20T03:54:09.639Z,1014.13
2018-04-20T03:54:50.084Z,1014.1
2018-04-20T03:55:30.421Z,1014.12
2018-04-20T03:56:10.820Z,1014.1
2018-04-20T03:56:51.297Z,1014.13
2018-04-20T03:57:31.647Z,1014.1
2018-04-20T03:58:12.083Z,1014.08
2018-04-20T03:58:52.446Z,1014.06
2018-04-20T03:59:32.825Z,1014.01
2018-04-20T04:00:13.251Z,1014.06
2018-04-20T04:00:53.596Z,1014.06
2018-04-20T04:01:34.004Z,1013.99
2018-04-20T04:43:27.774Z,1014.08
2018-04-20T04:44:13.628Z,1014.05
2018-04-20T04:44:52.558Z,1014.04
2018-04-20T04:45:32.942Z,1014.06
2018-04-20T04:46:13.327Z,1014.09
2018-04-20T04:46:53.736Z,1014.08
2018-04-20T04:47:34.061Z,1014.1
2018-04-20T04:48:14.436Z,1014.09
2018-04-20T04:48:54.841Z,1014.03
2018-04-20T04:49:35.237Z,1014.08
2018-04-20T04:50:15.690Z,1014.1
2018-04-20T04:50:56.042Z,1014.11
2018-04-20T04:51:36.435Z,1014.09
2018-04-20T04:52:16.827Z,1014.04
2018-04-20T04:52:57.298Z,1014.07
2018-04-20T04:53:37.691Z,1014.1
2018-04-20T04:54:18.101Z,1014.09
2018-04-20T04:54:58.503Z,1014.07
2018-04-20T04:55:38.913Z,1014.1
2018-04-20T04:56:19.283Z,1014.09
2018-04-20T04:56:59.681Z,1014.11
2018-04-20T04:57:40.111Z,1014.12
2018-04-20T04:58:21.022Z,1014.08
2018-04-20T04:59:01.450Z,1014.08
2018-04-20T04:59:41.837Z,1014.12
2018-04-20T05:00:22.220Z,1014.09
2018-04-20T05:01:02.653Z,1014.11
2018-04-20T05:01:43.026Z,1014.14
2018-04-20T05:02:23.431Z,1014.13
2018-04-20T05:03:03.917Z,1014.12
2018-04-20T05:03:44.542Z,1014.12
2018-04-20T05:04:25.506Z,1014.08
2018-04-20T05:05:05.917Z,1014.13
2018-04-20T05:05:46.326Z,1014.12
2018-04-20T05:06:26.703Z,1014.1
2018-04-20T05:08:34.591Z,1014.14
2018-04-20T05:09:17.108Z,1014.18
2018-04-20T05:09:57.126Z,1014.17
2018-04-20T05:10:37.564Z,1014.17
2018-04-20T05:11:17.943Z,1014.15
2018-04-20T05:11:58.360Z,1014.15
2018-04-20T05:12:38.828Z,1014.17
2018-04-20T05:13:19.197Z,1014.17
2018-04-20T05:13:59.601Z,1014.15
2018-04-20T05:14:40.030Z,1014.21
2018-04-20T05:17:18.483Z,1014.17
2018-04-20T05:18:02.417Z,1014.22
2018-04-20T05:18:42.733Z,1014.18
2018-04-20T05:19:23.221Z,1014.21
2018-04-20T05:20:03.596Z,1014.19
2018-04-20T05:20:43.943Z,1014.2
2018-04-20T05:21:24.353Z,1014.19
2018-04-20T05:22:04.799Z,1014.22
2018-04-20T05:22:45.210Z,1014.19
2018-04-20T05:23:25.629Z,1014.22
2018-04-20T05:24:06.047Z,1014.23
2018-04-20T05:24:49.185Z,1014.24
2018-04-20T05:25:29.660Z,1014.21
2018-04-20T05:26:10.005Z,1014.26
2018-04-20T05:26:50.382Z,1014.25
2018-04-20T05:27:30.814Z,1014.29
2018-04-20T05:28:11.267Z,1014.28
2018-04-20T05:28:51.552Z,1014.31
2018-04-20T05:29:31.985Z,1014.31
2018-04-20T05:30:12.424Z,1014.3
2018-04-20T05:30:52.798Z,1014.31
2018-04-20T05:31:33.163Z,1014.33
2018-04-20T05:32:13.583Z,1014.33
2018-04-20T05:32:54.058Z,1014.34
2018-04-20T05:33:34.455Z,1014.34
2018-04-20T05:34:14.764Z,1014.36
2018-04-20T05:34:55.168Z,1014.35
2018-04-20T05:35:35.592Z,1014.35
2018-04-20T05:36:15.977Z,1014.34
2018-04-20T05:36:56.359Z,1014.32
2018-04-20T05:37:36.767Z,1014.36
2018-04-20T05:38:17.279Z,1014.33
2018-04-20T05:38:57.643Z,1014.36
2018-04-20T05:39:38.101Z,1014.37
2018-04-20T05:40:18.457Z,1014.37
2018-04-20T05:40:58.937Z,1014.39
2018-04-20T05:41:39.297Z,1014.37
2018-04-20T05:42:19.835Z,1014.34
2018-04-20T05:43:00.268Z,1014.4
2018-04-20T05:43:40.718Z,1014.35
2018-04-20T05:44:21.089Z,1014.38
2018-04-20T05:45:01.527Z,1014.37
2018-04-20T05:45:41.857Z,1014.4
2018-04-20T05:46:22.360Z,1014.42
2018-04-20T05:47:02.847Z,1014.44
2018-04-20T05:47:43.166Z,1014.44
2018-04-20T05:48:23.577Z,1014.47
2018-04-20T05:49:04.025Z,1014.43
2018-04-20T05:49:44.516Z,1014.46
2018-04-20T05:50:24.826Z,1014.44
2018-04-20T05:51:05.339Z,1014.44
2018-04-20T05:51:45.733Z,1014.43
2018-04-20T05:52:26.143Z,1014.37
2018-04-20T05:53:06.775Z,1014.44
2018-04-20T05:53:47.226Z,1014.48
2018-04-20T05:54:27.648Z,1014.43
2018-04-20T05:55:08.109Z,1014.47
2018-04-20T05:55:48.523Z,1014.47
2018-04-20T05:56:29.001Z,1014.48
2018-04-20T05:57:09.554Z,1014.44
2018-04-20T05:57:49.917Z,1014.43
2018-04-20T05:58:30.262Z,1014.46
2018-04-20T05:59:10.679Z,1014.45
2018-04-20T05:59:51.319Z,1014.47
2018-04-20T06:00:32.952Z,1014.49
2018-04-20T06:01:13.244Z,1014.5
2018-04-20T06:01:53.543Z,1014.49
2018-04-20T06:02:34.068Z,1014.52
2018-04-20T06:03:14.376Z,1014.52
2018-04-20T06:03:54.901Z,1014.49
2018-04-20T06:04:35.361Z,1014.5
2018-04-20T06:05:15.801Z,1014.5
2018-04-20T06:05:56.723Z,1014.49
2018-04-20T06:06:37.133Z,1014.51
2018-04-20T06:07:17.524Z,1014.52
2018-04-20T06:07:58.085Z,1014.49
2018-04-20T06:08:38.508Z,1014.44
2018-04-20T06:09:18.906Z,1014.41
2018-04-20T06:09:59.336Z,1014.43
2018-04-20T06:10:39.678Z,1014.42
2018-04-20T06:11:20.077Z,1014.41
2018-04-20T06:12:00.495Z,1014.41
2018-04-20T06:12:40.927Z,1014.44
2018-04-20T06:13:21.301Z,1014.42
2018-04-20T06:14:01.720Z,1014.45
2018-04-20T06:14:44.084Z,1014.43
2018-04-20T06:15:24.483Z,1014.45
2018-04-20T06:16:04.839Z,1014.45
2018-04-20T06:16:46.278Z,1014.44
2018-04-20T06:17:28.268Z,1014.44
2018-04-20T06:18:08.638Z,1014.45
2018-04-20T06:18:49.078Z,1014.41
2018-04-20T06:19:30.449Z,1014.44
2018-04-20T06:20:12.233Z,1014.45
2018-04-20T06:20:53.603Z,1014.39
2018-04-20T06:21:34.272Z,1014.4
2018-04-20T06:22:14.232Z,1014.43
2018-04-20T06:22:54.644Z,1014.43
2018-04-20T06:23:35.424Z,1014.46
2018-04-20T06:24:15.961Z,1014.45
2018-04-20T06:24:56.752Z,1014.5
2018-04-20T06:25:37.747Z,1014.47
2018-04-20T06:26:19.029Z,1014.48
2018-04-20T06:26:59.399Z,1014.44
2018-04-20T06:27:41.883Z,1014.44
2018-04-20T06:28:22.348Z,1014.41
2018-04-20T06:29:04.294Z,1014.41
2018-04-20T06:29:47.302Z,1014.41
2018-04-20T06:30:27.721Z,1014.4
2018-04-20T06:31:08.042Z,1014.4
2018-04-20T06:31:48.538Z,1014.37
2018-04-20T06:32:28.894Z,1014.38
2018-04-20T06:33:09.367Z,1014.36
2018-04-20T06:33:49.806Z,1014.43
2018-04-20T06:34:30.231Z,1014.42
2018-04-20T06:35:11.329Z,1014.38
2018-04-20T06:35:51.461Z,1014.42
2018-04-20T06:36:32.184Z,1014.41
2018-04-20T06:37:13.247Z,1014.41
2018-04-20T06:37:55.028Z,1014.39
2018-04-20T06:38:35.246Z,1014.39
2018-04-20T06:45:38.592Z,1014.45
2018-04-20T06:46:19.134Z,1014.46
2018-04-20T06:46:59.569Z,1014.44
2018-04-20T06:47:42.536Z,1014.46
2018-04-20T06:48:25.627Z,1014.43
2018-04-20T06:50:25.195Z,1014.45
2018-04-20T06:51:05.746Z,1014.46
2018-04-20T06:51:46.417Z,1014.49
2018-04-20T06:52:26.768Z,1014.45
2018-04-20T06:53:07.177Z,1014.46
2018-04-20T06:53:47.584Z,1014.47
2018-04-20T06:54:29.207Z,1014.44
2018-04-20T06:55:08.597Z,1014.49
2018-04-20T06:55:49.032Z,1014.47
2018-04-20T06:56:29.507Z,1014.48
2018-04-20T06:57:09.800Z,1014.48
2018-04-20T06:57:50.271Z,1014.51
2018-04-20T06:58:30.708Z,1014.49
2018-04-20T06:59:11.121Z,1014.5
2018-04-20T06:59:51.529Z,1014.49
2018-04-20T07:00:32.003Z,1014.51
2018-04-20T07:01:12.384Z,1014.51
2018-04-20T07:01:52.777Z,1014.48
2018-04-20T07:02:33.411Z,1014.48
2018-04-20T07:03:13.765Z,1014.46
2018-04-20T07:03:54.213Z,1014.48
2018-04-20T07:04:34.667Z,1014.49
2018-04-20T07:05:15.200Z,1014.51
2018-04-20T07:05:56.211Z,1014.52
2018-04-20T07:06:36.876Z,1014.52
2018-04-20T07:07:17.566Z,1014.5
2018-04-20T07:07:58.062Z,1014.49
2018-04-20T07:08:38.673Z,1014.49
2018-04-20T07:09:19.068Z,1014.53
2018-04-20T07:09:59.542Z,1014.56
2018-04-20T07:10:39.989Z,1014.53
2018-04-20T07:11:20.343Z,1014.54
2018-04-20T07:12:00.851Z,1014.51
2018-04-20T07:12:41.319Z,1014.53
2018-04-20T07:13:22.290Z,1014.51
2018-04-20T07:14:02.728Z,1014.55
2018-04-20T07:14:43.360Z,1014.54
2018-04-20T07:15:23.839Z,1014.53
2018-04-20T07:16:04.309Z,1014.52
2018-04-20T07:16:44.840Z,1014.53
2018-04-20T07:17:25.169Z,1014.48
2018-04-20T07:18:05.848Z,1014.53
2018-04-20T07:18:46.316Z,1014.55
2018-04-20T07:19:26.610Z,1014.55
2018-04-20T07:20:06.988Z,1014.55
2018-04-20T07:20:47.435Z,1014.53
2018-04-20T07:21:27.833Z,1014.52
2018-04-20T07:22:08.269Z,1014.53
2018-04-20T07:22:48.717Z,1014.51
2018-04-20T07:23:29.289Z,1014.51
2018-04-20T07:24:09.615Z,1014.52
2018-04-20T07:24:50.065Z,1014.46
2018-04-20T07:25:30.611Z,1014.49
2018-04-20T07:26:10.934Z,1014.47
2018-04-20T07:26:51.337Z,1014.47
2018-04-20T07:27:31.788Z,1014.42
2018-04-20T07:28:12.205Z,1014.4
2018-04-20T07:28:52.682Z,1014.41
2018-04-20T07:29:33.071Z,1014.47
2018-04-20T07:30:13.583Z,1014.44
2018-04-20T07:30:53.959Z,1014.44
2018-04-20T07:31:34.414Z,1014.43
2018-04-20T07:32:14.896Z,1014.43
2018-04-20T07:32:55.278Z,1014.42
2018-04-20T07:33:35.964Z,1014.44
2018-04-20T07:34:16.505Z,1014.43
2018-04-20T07:34:56.774Z,1014.45
2018-04-20T07:35:37.244Z,1014.43
2018-04-20T07:36:17.586Z,1014.42
2018-04-20T07:36:58.057Z,1014.37
2018-04-20T07:37:38.434Z,1014.42
2018-04-20T07:38:18.853Z,1014.38
2018-04-20T07:38:59.308Z,1014.43
2018-04-20T07:39:39.878Z,1014.41
2018-04-20T07:40:20.251Z,1014.4
2018-04-20T07:41:00.722Z,1014.41
2018-04-20T07:41:41.187Z,1014.43
2018-04-20T07:42:21.520Z,1014.43
2018-04-20T07:43:01.926Z,1014.42
2018-04-20T07:43:43.237Z,1014.41
2018-04-20T07:44:25.952Z,1014.44
2018-04-20T07:45:06.358Z,1014.4
2018-04-20T07:45:46.786Z,1014.41
2018-04-20T07:46:27.754Z,1014.4
2018-04-20T07:47:07.753Z,1014.4
2018-04-20T07:47:48.152Z,1014.39
2018-04-20T07:48:28.612Z,1014.38
2018-04-20T07:49:09.091Z,1014.4
2018-04-20T07:49:49.493Z,1014.37
2018-04-20T07:50:29.930Z,1014.4
2018-04-20T07:51:10.309Z,1014.39
2018-04-20T07:51:51.026Z,1014.39
2018-04-20T07:52:31.729Z,1014.4
2018-04-20T07:53:12.219Z,1014.41
2018-04-20T07:53:52.616Z,1014.38
2018-04-20T07:54:33.034Z,1014.44
2018-04-20T07:55:13.437Z,1014.41
2018-04-20T07:55:54.730Z,1014.41
2018-04-20T07:56:34.588Z,1014.36
2018-04-20T07:57:14.982Z,1014.35
2018-04-20T08:00:40.145Z,1014.36
2018-04-20T08:01:18.706Z,1014.42
2018-04-20T08:01:59.146Z,1014.41
2018-04-20T08:02:39.531Z,1014.42
2018-04-20T08:03:20.032Z,1014.41
2018-04-20T08:04:00.483Z,1014.43
2018-04-20T08:04:40.854Z,1014.45
2018-04-20T08:05:21.373Z,1014.41
2018-04-20T08:06:01.855Z,1014.47
2018-04-20T08:06:42.173Z,1014.47
2018-04-20T08:07:22.683Z,1014.46
2018-04-20T08:08:03.643Z,1014.49
2018-04-20T08:08:44.120Z,1014.47
2018-04-20T08:09:24.816Z,1014.48
2018-04-20T08:10:05.390Z,1014.49
2018-04-20T08:10:45.724Z,1014.46
2018-04-20T08:11:26.566Z,1014.42
2018-04-20T08:12:06.808Z,1014.42
2018-04-20T08:12:47.832Z,1014.42
2018-04-20T08:13:28.519Z,1014.42
2018-04-20T08:14:10.384Z,1014.45
2018-04-20T08:14:50.833Z,1014.45
2018-04-20T08:15:32.937Z,1014.45
2018-04-20T08:16:14.169Z,1014.48
2018-04-20T08:17:02.193Z,1014.46
2018-04-20T08:17:44.673Z,1014.49
2018-04-20T08:18:25.323Z,1014.46
2018-04-20T08:19:05.770Z,1014.49
2018-04-20T08:19:46.271Z,1014.49
2018-04-20T08:20:27.065Z,1014.51
2018-04-20T08:21:07.479Z,1014.49
2018-04-20T08:21:47.953Z,1014.47
2018-04-20T08:22:28.613Z,1014.53
2018-04-20T08:23:09.889Z,1014.49
2018-04-20T08:23:50.434Z,1014.49
2018-04-20T08:24:31.000Z,1014.49
2018-04-20T08:25:11.629Z,1014.51
2018-04-20T08:25:52.582Z,1014.55
2018-04-20T08:26:33.024Z,1014.48
2018-04-20T08:27:13.466Z,1014.53
2018-04-20T08:27:55.208Z,1014.49
2018-04-20T08:28:35.819Z,1014.5
2018-04-20T08:29:16.190Z,1014.54
2018-04-20T08:29:56.672Z,1014.49
2018-04-20T08:30:38.246Z,1014.52
2018-04-20T08:31:18.653Z,1014.53
2018-04-20T08:31:59.075Z,1014.5
2018-04-20T08:32:39.692Z,1014.5
2018-04-20T08:33:20.520Z,1014.5
2018-04-20T08:34:01.082Z,1014.56
2018-04-20T08:34:41.848Z,1014.54
2018-04-20T08:35:22.269Z,1014.54
2018-04-20T08:36:03.181Z,1014.58
2018-04-20T08:36:43.582Z,1014.55
2018-04-20T08:37:24.438Z,1014.54
2018-04-20T08:38:05.059Z,1014.56
2018-04-20T08:38:45.585Z,1014.56
2018-04-20T08:39:26.224Z,1014.52
2018-04-20T08:40:09.469Z,1014.57
2018-04-20T08:40:50.020Z,1014.13
2018-04-20T08:41:30.606Z,1014.56
2018-04-20T08:42:11.589Z,1014.57
2018-04-20T08:42:53.323Z,1014.58
2018-04-20T08:43:32.882Z,1014.57
2018-04-20T08:44:13.954Z,1014.53
2018-04-20T08:44:55.661Z,1014.58
2018-04-20T08:45:36.233Z,1014.57
2018-04-20T08:46:16.644Z,1014.52
2018-04-20T08:46:57.337Z,1014.52
2018-04-20T08:47:37.844Z,1014.52
2018-04-20T08:48:18.410Z,1014.54
2018-04-20T08:49:00.769Z,1014.53
2018-04-20T08:49:41.215Z,1014.54
2018-04-20T08:50:21.656Z,1014.54
2018-04-20T08:51:02.281Z,1014.56
2018-04-20T08:51:42.992Z,1014.54
2018-04-20T08:52:26.757Z,1014.56
2018-04-20T08:53:07.075Z,1014.51
2018-04-20T08:53:49.894Z,1014.52
2018-04-20T08:54:29.654Z,1014.54
2018-04-20T08:55:10.116Z,1014.56
2018-04-20T08:55:50.577Z,1014.53
2018-04-20T08:56:30.986Z,1014.56
2018-04-20T08:57:11.437Z,1014.57
2018-04-20T08:57:52.013Z,1014.58
2018-04-20T08:58:32.890Z,1014.61
2018-04-20T08:59:13.248Z,1014.57
2018-04-20T08:59:54.052Z,1014.59
2018-04-20T09:00:34.474Z,1014.55
2018-04-20T09:01:15.174Z,1014.67
2018-04-20T09:01:55.567Z,1014.62
2018-04-20T09:02:35.955Z,1014.61
2018-04-20T09:03:16.399Z,1014.64
2018-04-20T09:03:57.256Z,1014.63
2018-04-20T09:04:38.225Z,1014.59
2018-04-20T09:05:19.177Z,1014.56
2018-04-20T09:06:00.158Z,1014.6
2018-04-20T09:06:40.308Z,1014.55
2018-04-20T09:07:20.825Z,1014.57
2018-04-20T09:08:01.445Z,1014.58
2018-04-20T09:08:42.875Z,1014.53